PWSweather.com
Personal Weather Stations
Station Observations
EDGELEY
Edgeley, Nd, Edgeley, ND 58433

Edgeley, NdEdgeley, ND 58433

Lat: 46.3599246, Lon: -98.7144392

Elevation: 1575

Station Type: Davis/Vantage Pro

www.edgeleyweather.com

High Low Average
Temperature 85.9°F29.9°C 65.8°F18.8°C 77.3°F25.2°C
Dew Point 64.9°F18.3°C 55.7°F13.2°C 59.7°F15.4°C
Winds 12.0 mph 19.3 kmh Calm Calm 6.0 mph N9.7 kmh N
Wind Gusts 21.0 mph33.8 kmh -- 10.0 mph16.1 kmh
Humidity 70% 44% 55%
Pressure 29.72 in1006.4 mb 29.55 in1000.7 mb -
Precipitation 0.00 in0.0 mm - -
Hour Temp Dew Point Humidity Winds Wind Gusts Pressure Precip Precip Rate Daily Precip Total
05:45 PM 80.3°F26.8°C 62.2°F16.8°C 54% 4.0 mph N6.4 kmh N 7.0 mph11.3 kmh 29.57 in1001.4 mb 0.00 in0.0 mm 0.00 in0.0 mm 0.00 in0.0 mm
05:50 PM 80.7°F27.1°C 62.0°F16.7°C 53% 6.0 mph N9.7 kmh N 7.0 mph11.3 kmh 29.57 in1001.4 mb 0.00 in0.0 mm 0.00 in0.0 mm 0.00 in0.0 mm
05:55 PM 81.0°F27.2°C 62.3°F16.8°C 53% 1.0 mph N1.6 kmh N 7.0 mph11.3 kmh 29.57 in1001.4 mb 0.00 in0.0 mm 0.00 in0.0 mm 0.00 in0.0 mm
06:00 PM 81.5°F27.5°C 62.7°F17.1°C 53% Calm Calm 2.0 mph3.2 kmh 29.57 in1001.4 mb 0.00 in0.0 mm 0.00 in0.0 mm 0.00 in0.0 mm
06:05 PM 82.1°F27.8°C 61.6°F16.4°C 50% Calm Calm 3.0 mph4.8 kmh 29.57 in1001.4 mb 0.00 in0.0 mm 0.00 in0.0 mm 0.00 in0.0 mm
06:10 PM 82.3°F27.9°C 64.0°F17.8°C 54% Calm Calm 3.0 mph4.8 kmh 29.56 in1001.0 mb 0.00 in0.0 mm 0.00 in0.0 mm 0.00 in0.0 mm
06:15 PM 82.1°F27.8°C 64.9°F18.3°C 56% Calm Calm -- 29.56 in1001.0 mb 0.00 in0.0 mm 0.00 in0.0 mm 0.00 in0.0 mm
06:20 PM 82.4°F28.0°C 61.3°F16.3°C 49% Calm Calm -- 29.56 in1001.0 mb 0.00 in0.0 mm 0.00 in0.0 mm 0.00 in0.0 mm
06:25 PM 83.1°F28.4°C 64.2°F17.9°C 53% Calm Calm -- 29.56 in1001.0 mb 0.00 in0.0 mm 0.00 in0.0 mm 0.00 in0.0 mm
06:30 PM 83.5°F28.6°C 59.9°F15.5°C 45% 3.0 mph N4.8 kmh N 3.0 mph4.8 kmh 29.55 in1000.7 mb 0.00 in0.0 mm 0.00 in0.0 mm 0.00 in0.0 mm
06:35 PM 84.7°F29.3°C 61.0°F16.1°C 45% 7.0 mph N11.3 kmh N 11.0 mph17.7 kmh 29.55 in1000.7 mb 0.00 in0.0 mm 0.00 in0.0 mm 0.00 in0.0 mm
06:40 PM 85.6°F29.8°C 61.2°F16.2°C 44% 12.0 mph N19.3 kmh N 14.0 mph22.5 kmh 29.55 in1000.7 mb 0.00 in0.0 mm 0.00 in0.0 mm 0.00 in0.0 mm
06:45 PM 85.8°F29.9°C 61.4°F16.3°C 44% 6.0 mph N9.7 kmh N 7.0 mph11.3 kmh 29.55 in1000.7 mb 0.00 in0.0 mm 0.00 in0.0 mm 0.00 in0.0 mm
06:50 PM 85.9°F29.9°C 62.1°F16.7°C 45% 9.0 mph N14.5 kmh N 12.0 mph19.3 kmh 29.55 in1000.7 mb 0.00 in0.0 mm 0.00 in0.0 mm 0.00 in0.0 mm
06:55 PM 85.8°F29.9°C 62.7°F17.1°C 46% 12.0 mph N19.3 kmh N 17.0 mph27.4 kmh 29.55 in1000.7 mb 0.00 in0.0 mm 0.00 in0.0 mm 0.00 in0.0 mm
07:00 PM 85.6°F29.8°C 62.5°F16.9°C 46% 9.0 mph N14.5 kmh N 10.0 mph16.1 kmh 29.56 in1001.0 mb 0.00 in0.0 mm 0.00 in0.0 mm 0.00 in0.0 mm
07:05 PM 85.5°F29.7°C 63.0°F17.2°C 47% 6.0 mph N9.7 kmh N 10.0 mph16.1 kmh 29.56 in1001.0 mb 0.00 in0.0 mm 0.00 in0.0 mm 0.00 in0.0 mm
07:10 PM 85.3°F29.6°C 62.2°F16.8°C 46% 7.0 mph N11.3 kmh N 15.0 mph24.1 kmh 29.56 in1001.0 mb 0.00 in0.0 mm 0.00 in0.0 mm 0.00 in0.0 mm
07:15 PM 85.3°F29.6°C 62.2°F16.8°C 46% 7.0 mph N11.3 kmh N 11.0 mph17.7 kmh 29.56 in1001.0 mb 0.00 in0.0 mm 0.00 in0.0 mm 0.00 in0.0 mm
07:20 PM 85.2°F29.6°C 62.1°F16.7°C 46% 6.0 mph N9.7 kmh N 12.0 mph19.3 kmh 29.56 in1001.0 mb 0.00 in0.0 mm 0.00 in0.0 mm 0.00 in0.0 mm
07:25 PM 85.0°F29.4°C 63.1°F17.3°C 48% 5.0 mph N8.0 kmh N 12.0 mph19.3 kmh 29.57 in1001.4 mb 0.00 in0.0 mm 0.00 in0.0 mm 0.00 in0.0 mm
07:30 PM 84.6°F29.2°C 62.8°F17.1°C 48% 5.0 mph N8.0 kmh N 7.0 mph11.3 kmh 29.57 in1001.4 mb 0.00 in0.0 mm 0.00 in0.0 mm 0.00 in0.0 mm
07:35 PM 84.0°F28.9°C 62.8°F17.1°C 49% 3.0 mph N4.8 kmh N 11.0 mph17.7 kmh 29.57 in1001.4 mb 0.00 in0.0 mm 0.00 in0.0 mm 0.00 in0.0 mm
07:40 PM 83.6°F28.7°C 63.0°F17.2°C 50% 6.0 mph N9.7 kmh N 12.0 mph19.3 kmh 29.57 in1001.4 mb 0.00 in0.0 mm 0.00 in0.0 mm 0.00 in0.0 mm
07:45 PM 83.3°F28.5°C 63.3°F17.4°C 51% 4.0 mph N6.4 kmh N 7.0 mph11.3 kmh 29.58 in1001.7 mb 0.00 in0.0 mm 0.00 in0.0 mm 0.00 in0.0 mm
07:50 PM 83.0°F28.3°C 62.5°F16.9°C 50% 4.0 mph N6.4 kmh N 13.0 mph20.9 kmh 29.58 in1001.7 mb 0.00 in0.0 mm 0.00 in0.0 mm 0.00 in0.0 mm
07:55 PM 82.9°F28.3°C 62.4°F16.9°C 50% 8.0 mph N12.9 kmh N 13.0 mph20.9 kmh 29.58 in1001.7 mb 0.00 in0.0 mm 0.00 in0.0 mm 0.00 in0.0 mm
08:00 PM 82.6°F28.1°C 60.9°F16.1°C 48% 7.0 mph N11.3 kmh N 8.0 mph12.9 kmh 29.58 in1001.7 mb 0.00 in0.0 mm 0.00 in0.0 mm 0.00 in0.0 mm
08:05 PM 82.3°F27.9°C 60.7°F15.9°C 48% 5.0 mph N8.0 kmh N 14.0 mph22.5 kmh 29.59 in1002.0 mb 0.00 in0.0 mm 0.00 in0.0 mm 0.00 in0.0 mm
08:10 PM 81.9°F27.7°C 60.3°F15.7°C 48% 11.0 mph N17.7 kmh N 18.0 mph29.0 kmh 29.60 in1002.4 mb 0.00 in0.0 mm 0.00 in0.0 mm 0.00 in0.0 mm
08:15 PM 81.5°F27.5°C 59.9°F15.5°C 48% 7.0 mph N11.3 kmh N 7.0 mph11.3 kmh 29.60 in1002.4 mb 0.00 in0.0 mm 0.00 in0.0 mm 0.00 in0.0 mm
08:20 PM 81.1°F27.3°C 59.6°F15.3°C 48% 5.0 mph N8.0 kmh N 14.0 mph22.5 kmh 29.60 in1002.4 mb 0.00 in0.0 mm 0.00 in0.0 mm 0.00 in0.0 mm
08:25 PM 80.6°F27.0°C 59.1°F15.1°C 48% 4.0 mph N6.4 kmh N 14.0 mph22.5 kmh 29.61 in1002.7 mb 0.00 in0.0 mm 0.00 in0.0 mm 0.00 in0.0 mm
08:30 PM 80.1°F26.7°C 59.2°F15.1°C 49% 11.0 mph N17.7 kmh N 11.0 mph17.7 kmh 29.61 in1002.7 mb 0.00 in0.0 mm 0.00 in0.0 mm 0.00 in0.0 mm
08:35 PM 79.6°F26.4°C 59.3°F15.2°C 50% 7.0 mph N11.3 kmh N 11.0 mph17.7 kmh 29.61 in1002.7 mb 0.00 in0.0 mm 0.00 in0.0 mm 0.00 in0.0 mm
08:40 PM 79.1°F26.2°C 59.4°F15.2°C 51% 9.0 mph N14.5 kmh N 13.0 mph20.9 kmh 29.62 in1003.0 mb 0.00 in0.0 mm 0.00 in0.0 mm 0.00 in0.0 mm
08:45 PM 78.6°F25.9°C 59.5°F15.3°C 52% 4.0 mph N6.4 kmh N 7.0 mph11.3 kmh 29.62 in1003.0 mb 0.00 in0.0 mm 0.00 in0.0 mm 0.00 in0.0 mm
08:50 PM 78.4°F25.8°C 59.9°F15.5°C 53% 6.0 mph N9.7 kmh N 12.0 mph19.3 kmh 29.63 in1003.4 mb 0.00 in0.0 mm 0.00 in0.0 mm 0.00 in0.0 mm
08:55 PM 78.2°F25.7°C 60.2°F15.7°C 54% 8.0 mph N12.9 kmh N 16.0 mph25.7 kmh 29.63 in1003.4 mb 0.00 in0.0 mm 0.00 in0.0 mm 0.00 in0.0 mm
09:00 PM 77.9°F25.5°C 60.5°F15.8°C 55% 5.0 mph N8.0 kmh N 7.0 mph11.3 kmh 29.64 in1003.7 mb 0.00 in0.0 mm 0.00 in0.0 mm 0.00 in0.0 mm
09:05 PM 77.5°F25.3°C 60.1°F15.6°C 55% 8.0 mph N12.9 kmh N 21.0 mph33.8 kmh 29.65 in1004.1 mb 0.00 in0.0 mm 0.00 in0.0 mm 0.00 in0.0 mm
09:10 PM 77.1°F25.1°C 59.7°F15.4°C 55% 10.0 mph N16.1 kmh N 21.0 mph33.8 kmh 29.65 in1004.1 mb 0.00 in0.0 mm 0.00 in0.0 mm 0.00 in0.0 mm
09:15 PM 76.7°F24.8°C 59.8°F15.4°C 56% 6.0 mph N9.7 kmh N 17.0 mph27.4 kmh 29.65 in1004.1 mb 0.00 in0.0 mm 0.00 in0.0 mm 0.00 in0.0 mm
09:20 PM 76.2°F24.6°C 59.4°F15.2°C 56% 12.0 mph N19.3 kmh N 17.0 mph27.4 kmh 29.66 in1004.4 mb 0.00 in0.0 mm 0.00 in0.0 mm 0.00 in0.0 mm
09:25 PM 75.8°F24.3°C 59.5°F15.3°C 57% 11.0 mph N17.7 kmh N 17.0 mph27.4 kmh 29.66 in1004.4 mb 0.00 in0.0 mm 0.00 in0.0 mm 0.00 in0.0 mm
09:30 PM 75.4°F24.1°C 59.1°F15.1°C 57% 4.0 mph N6.4 kmh N 8.0 mph12.9 kmh 29.67 in1004.7 mb 0.00 in0.0 mm 0.00 in0.0 mm 0.00 in0.0 mm
09:35 PM 75.1°F23.9°C 58.8°F14.9°C 57% 5.0 mph N8.0 kmh N 10.0 mph16.1 kmh 29.67 in1004.7 mb 0.00 in0.0 mm 0.00 in0.0 mm 0.00 in0.0 mm
09:40 PM 74.6°F23.7°C 58.9°F14.9°C 58% 2.0 mph N3.2 kmh N 10.0 mph16.1 kmh 29.67 in1004.7 mb 0.00 in0.0 mm 0.00 in0.0 mm 0.00 in0.0 mm
09:45 PM 74.3°F23.5°C 59.1°F15.1°C 59% 12.0 mph N19.3 kmh N 12.0 mph19.3 kmh 29.68 in1005.1 mb 0.00 in0.0 mm 0.00 in0.0 mm 0.00 in0.0 mm
09:50 PM 73.8°F23.2°C 58.6°F14.8°C 59% 9.0 mph N14.5 kmh N 12.0 mph19.3 kmh 29.68 in1005.1 mb 0.00 in0.0 mm 0.00 in0.0 mm 0.00 in0.0 mm
09:55 PM 73.4°F23.0°C 58.2°F14.6°C 59% 4.0 mph N6.4 kmh N 14.0 mph22.5 kmh 29.67 in1004.7 mb 0.00 in0.0 mm 0.00 in0.0 mm 0.00 in0.0 mm
10:00 PM 73.1°F22.8°C 57.5°F14.2°C 58% 6.0 mph N9.7 kmh N 9.0 mph14.5 kmh 29.68 in1005.1 mb 0.00 in0.0 mm 0.00 in0.0 mm 0.00 in0.0 mm
10:05 PM 72.8°F22.7°C 57.7°F14.3°C 59% 6.0 mph N9.7 kmh N 13.0 mph20.9 kmh 29.68 in1005.1 mb 0.00 in0.0 mm 0.00 in0.0 mm 0.00 in0.0 mm
10:10 PM 72.4°F22.4°C 57.8°F14.3°C 60% 6.0 mph N9.7 kmh N 13.0 mph20.9 kmh 29.68 in1005.1 mb 0.00 in0.0 mm 0.00 in0.0 mm 0.00 in0.0 mm
10:15 PM 72.0°F22.2°C 57.4°F14.1°C 60% 5.0 mph N8.0 kmh N 10.0 mph16.1 kmh 29.68 in1005.1 mb 0.00 in0.0 mm 0.00 in0.0 mm 0.00 in0.0 mm
10:20 PM 71.7°F22.1°C 57.6°F14.2°C 61% 3.0 mph N4.8 kmh N 10.0 mph16.1 kmh 29.68 in1005.1 mb 0.00 in0.0 mm 0.00 in0.0 mm 0.00 in0.0 mm
10:25 PM 71.3°F21.8°C 57.2°F14.0°C 61% 3.0 mph N4.8 kmh N 12.0 mph19.3 kmh 29.69 in1005.4 mb 0.00 in0.0 mm 0.00 in0.0 mm 0.00 in0.0 mm
10:30 PM 71.0°F21.7°C 57.3°F14.1°C 62% 3.0 mph N4.8 kmh N 5.0 mph8.0 kmh 29.69 in1005.4 mb 0.00 in0.0 mm 0.00 in0.0 mm 0.00 in0.0 mm
10:35 PM 70.7°F21.5°C 57.5°F14.2°C 63% 5.0 mph N8.0 kmh N 9.0 mph14.5 kmh 29.69 in1005.4 mb 0.00 in0.0 mm 0.00 in0.0 mm 0.00 in0.0 mm
10:40 PM 70.2°F21.2°C 57.5°F14.2°C 64% 4.0 mph N6.4 kmh N 10.0 mph16.1 kmh 29.69 in1005.4 mb 0.00 in0.0 mm 0.00 in0.0 mm 0.00 in0.0 mm
10:45 PM 69.8°F21.0°C 57.1°F13.9°C 64% 3.0 mph N4.8 kmh N 6.0 mph9.7 kmh 29.69 in1005.4 mb 0.00 in0.0 mm 0.00 in0.0 mm 0.00 in0.0 mm
10:50 PM 69.5°F20.8°C 56.8°F13.8°C 64% 3.0 mph N4.8 kmh N 12.0 mph19.3 kmh 29.70 in1005.8 mb 0.00 in0.0 mm 0.00 in0.0 mm 0.00 in0.0 mm
10:55 PM 69.1°F20.6°C 56.9°F13.8°C 65% 8.0 mph N12.9 kmh N 12.0 mph19.3 kmh 29.70 in1005.8 mb 0.00 in0.0 mm 0.00 in0.0 mm 0.00 in0.0 mm
11:00 PM 68.8°F20.4°C 56.6°F13.7°C 65% 10.0 mph N16.1 kmh N 10.0 mph16.1 kmh 29.71 in1006.1 mb 0.00 in0.0 mm 0.00 in0.0 mm 0.00 in0.0 mm
11:05 PM 68.5°F20.3°C 56.3°F13.5°C 65% 10.0 mph N16.1 kmh N 16.0 mph25.7 kmh 29.71 in1006.1 mb 0.00 in0.0 mm 0.00 in0.0 mm 0.00 in0.0 mm
11:10 PM 68.3°F20.2°C 56.1°F13.4°C 65% 9.0 mph N14.5 kmh N 16.0 mph25.7 kmh 29.71 in1006.1 mb 0.00 in0.0 mm 0.00 in0.0 mm 0.00 in0.0 mm
11:15 PM 68.1°F20.1°C 56.3°F13.5°C 66% 5.0 mph N8.0 kmh N 7.0 mph11.3 kmh 29.71 in1006.1 mb 0.00 in0.0 mm 0.00 in0.0 mm 0.00 in0.0 mm
11:20 PM 67.8°F19.9°C 56.0°F13.3°C 66% 5.0 mph N8.0 kmh N 13.0 mph20.9 kmh 29.71 in1006.1 mb 0.00 in0.0 mm 0.00 in0.0 mm 0.00 in0.0 mm
11:25 PM 67.6°F19.8°C 55.9°F13.3°C 66% 6.0 mph N9.7 kmh N 13.0 mph20.9 kmh 29.72 in1006.4 mb 0.00 in0.0 mm 0.00 in0.0 mm 0.00 in0.0 mm
11:30 PM 67.4°F19.7°C 56.1°F13.4°C 67% 3.0 mph N4.8 kmh N 6.0 mph9.7 kmh 29.72 in1006.4 mb 0.00 in0.0 mm 0.00 in0.0 mm 0.00 in0.0 mm
11:35 PM 67.0°F19.4°C 56.1°F13.4°C 68% 3.0 mph N4.8 kmh N 8.0 mph12.9 kmh 29.72 in1006.4 mb 0.00 in0.0 mm 0.00 in0.0 mm 0.00 in0.0 mm
11:40 PM 66.7°F19.3°C 55.8°F13.2°C 68% 4.0 mph N6.4 kmh N 11.0 mph17.7 kmh 29.72 in1006.4 mb 0.00 in0.0 mm 0.00 in0.0 mm 0.00 in0.0 mm
11:45 PM 66.3°F19.1°C 55.8°F13.2°C 69% 3.0 mph N4.8 kmh N 6.0 mph9.7 kmh 29.72 in1006.4 mb 0.00 in0.0 mm 0.00 in0.0 mm 0.00 in0.0 mm
11:50 PM 66.1°F18.9°C 55.7°F13.2°C 69% 2.0 mph N3.2 kmh N 9.0 mph14.5 kmh 29.72 in1006.4 mb 0.00 in0.0 mm 0.00 in0.0 mm 0.00 in0.0 mm
11:55 PM 65.8°F18.8°C 55.8°F13.2°C 70% 6.0 mph N9.7 kmh N 9.0 mph14.5 kmh 29.72 in1006.4 mb 0.00 in0.0 mm 0.00 in0.0 mm 0.00 in0.0 mm